Krum, Texas
Current Conditions -  °F | °C
As of 8:53 AM on Friday 28 Nov 2014 (Local Time) from KDTO Reporting Station
Clear Clear  
Wind Chill: 50°   Ceiling: Unl
Heat Index: 50°   Visibility: 10mi
Dew Point: 36°   Wind: 13mph
Humidity: 59%   Direction: 190°S
Pressure: 30.23"   Gusts: NA
Location:  33.26°N, 97.24°W
Report Text: KDTO 281453Z 19011KT 10SM CLR 10/02 A3023 RMK AO2 SLP235 T01000022 56006
Loading
Personal Weather Stations






























Interactive Weather Map New forecast layout! Learn more

10-Day Weather Forecast

Advertisements
Track Severe Weather on mobile